sensor_id;sensor_type;location;lat;lon;timestamp;pressure;altitude;pressure_sealevel;temperature;humidity
37132;BME280;23035;50.032;21.978;2022-12-20T00:02:36;65316.75;;;1.43;91.72
37132;BME280;23035;50.032;21.978;2022-12-20T00:07:43;65365.22;;;1.89;89.78
37132;BME280;23035;50.032;21.978;2022-12-20T00:12:47;65396.94;;;2.15;89.82
37132;BME280;23035;50.032;21.978;2022-12-20T00:17:53;65360.31;;;1.82;90.20
37132;BME280;23035;50.032;21.978;2022-12-20T00:22:58;65375.63;;;1.94;90.21
37132;BME280;23035;50.032;21.978;2022-12-20T00:28:02;65314.09;;;1.40;94.06
37132;BME280;23035;50.032;21.978;2022-12-20T00:33:08;65390.22;;;2.13;91.71
37132;BME280;23035;50.032;21.978;2022-12-20T00:38:12;65369.34;;;1.91;92.73
37132;BME280;23035;50.032;21.978;2022-12-20T00:43:16;65354.44;;;1.77;94.76
37132;BME280;23035;50.032;21.978;2022-12-20T00:48:23;65396.53;;;2.17;93.08
37132;BME280;23035;50.032;21.978;2022-12-20T00:53:28;65390.66;;;2.11;93.17
37132;BME280;23035;50.032;21.978;2022-12-20T00:58:35;65429.53;;;2.48;92.05
37132;BME280;23035;50.032;21.978;2022-12-20T01:03:44;65396.41;;;2.14;92.44
37132;BME280;23035;50.032;21.978;2022-12-20T01:08:48;65389.69;;;2.13;92.15
37132;BME280;23035;50.032;21.978;2022-12-20T01:13:55;65310.91;;;1.37;99.58
37132;BME280;23035;50.032;21.978;2022-12-20T01:19:02;65399.63;;;2.17;93.77
37132;BME280;23035;50.032;21.978;2022-12-20T01:24:09;65344.31;;;1.67;96.99
37132;BME280;23035;50.032;21.978;2022-12-20T01:29:14;65354.56;;;1.79;99.29
37132;BME280;23035;50.032;21.978;2022-12-20T01:34:21;65373.50;;;1.92;98.30
37132;BME280;23035;50.032;21.978;2022-12-20T01:39:25;65344.97;;;1.70;99.88
37132;BME280;23035;50.032;21.978;2022-12-20T01:44:53;65326.25;;;1.50;100.00
37132;BME280;23035;50.032;21.978;2022-12-20T01:50:00;65401.75;;;2.19;96.04
37132;BME280;23035;50.032;21.978;2022-12-20T01:55:09;65444.47;;;2.63;95.73
37132;BME280;23035;50.032;21.978;2022-12-20T02:00:14;65438.41;;;2.52;94.70
37132;BME280;23035;50.032;21.978;2022-12-20T02:05:22;65407.28;;;2.29;99.48
37132;BME280;23035;50.032;21.978;2022-12-20T02:10:33;65393.75;;;2.12;98.25
37132;BME280;23035;50.032;21.978;2022-12-20T02:15:49;65375.63;;;1.94;97.72
37132;BME280;23035;50.032;21.978;2022-12-20T02:21:11;65330.59;;;1.56;100.00
37132;BME280;23035;50.032;21.978;2022-12-20T02:26:44;65289.50;;;1.14;100.00
37132;BME280;23035;50.032;21.978;2022-12-20T02:32:00;65371.38;;;1.90;100.00
37132;BME280;23035;50.032;21.978;2022-12-20T02:37:08;65350.19;;;1.72;100.00
37132;BME280;23035;50.032;21.978;2022-12-20T02:42:15;65306.13;;;1.33;100.00
37132;BME280;23035;50.032;21.978;2022-12-20T02:47:28;65337.50;;;1.63;100.00
37132;BME280;23035;50.032;21.978;2022-12-20T02:52:38;65377.44;;;2.01;100.00
37132;BME280;23035;50.032;21.978;2022-12-20T02:57:49;65306.00;;;1.30;100.00
37132;BME280;23035;50.032;21.978;2022-12-20T03:03:04;65310.25;;;1.34;100.00
37132;BME280;23035;50.032;21.978;2022-12-20T03:08:28;65358.81;;;1.83;100.00
37132;BME280;23035;50.032;21.978;2022-12-20T03:13:34;65343.38;;;1.68;100.00
37132;BME280;23035;50.032;21.978;2022-12-20T03:18:44;65310.56;;;1.42;100.00
37132;BME280;23035;50.032;21.978;2022-12-20T03:23:48;65341.13;;;1.64;100.00
37132;BME280;23035;50.032;21.978;2022-12-20T03:28:53;65298.56;;;1.23;100.00
37132;BME280;23035;50.032;21.978;2022-12-20T03:34:03;65311.00;;;1.40;100.00
37132;BME280;23035;50.032;21.978;2022-12-20T03:39:09;65271.31;;;0.95;100.00
37132;BME280;23035;50.032;21.978;2022-12-20T03:44:15;65295.47;;;1.23;100.00
37132;BME280;23035;50.032;21.978;2022-12-20T03:49:21;65310.78;;;1.35;100.00
37132;BME280;23035;50.032;21.978;2022-12-20T03:54:26;65291.75;;;1.19;100.00
37132;BME280;23035;50.032;21.978;2022-12-20T04:00:01;65250.25;;;0.79;100.00
37132;BME280;23035;50.032;21.978;2022-12-20T04:05:18;65265.13;;;0.94;100.00
37132;BME280;23035;50.032;21.978;2022-12-20T04:10:26;65252.91;;;0.82;100.00
37132;BME280;23035;50.032;21.978;2022-12-20T04:15:30;65247.47;;;0.74;100.00
37132;BME280;23035;50.032;21.978;2022-12-20T04:20:36;65289.84;;;1.10;100.00
37132;BME280;23035;50.032;21.978;2022-12-20T04:25:51;65276.22;;;1.02;100.00
37132;BME280;23035;50.032;21.978;2022-12-20T04:30:59;65252.91;;;0.82;100.00
37132;BME280;23035;50.032;21.978;2022-12-20T04:36:13;65257.06;;;0.83;100.00
37132;BME280;23035;50.032;21.978;2022-12-20T04:41:22;65284.72;;;1.10;100.00
37132;BME280;23035;50.032;21.978;2022-12-20T04:46:35;65325.72;;;1.49;100.00
37132;BME280;23035;50.032;21.978;2022-12-20T04:51:45;65309.63;;;1.31;100.00
37132;BME280;23035;50.032;21.978;2022-12-20T04:56:52;65333.69;;;1.57;100.00
37132;BME280;23035;50.032;21.978;2022-12-20T05:01:58;65281.13;;;1.09;100.00
37132;BME280;23035;50.032;21.978;2022-12-20T05:07:34;65305.47;;;1.30;100.00
37132;BME280;23035;50.032;21.978;2022-12-20T05:12:39;65324.13;;;1.48;100.00
37132;BME280;23035;50.032;21.978;2022-12-20T05:17:48;65339.09;;;1.64;100.00
37132;BME280;23035;50.032;21.978;2022-12-20T05:22:57;65305.91;;;1.28;100.00
37132;BME280;23035;50.032;21.978;2022-12-20T05:28:22;65336.44;;;1.62;100.00
37132;BME280;23035;50.032;21.978;2022-12-20T05:33:43;65342.84;;;1.68;100.00
37132;BME280;23035;50.032;21.978;2022-12-20T05:38:53;65365.53;;;1.85;100.00
37132;BME280;23035;50.032;21.978;2022-12-20T05:44:07;65315.78;;;1.44;100.00
37132;BME280;23035;50.032;21.978;2022-12-20T05:49:16;65370.00;;;1.94;100.00
37132;BME280;23035;50.032;21.978;2022-12-20T05:54:23;65304.94;;;1.29;100.00
37132;BME280;23035;50.032;21.978;2022-12-20T05:59:34;65403.53;;;2.26;100.00
37132;BME280;23035;50.032;21.978;2022-12-20T06:04:44;65375.31;;;1.99;100.00
37132;BME280;23035;50.032;21.978;2022-12-20T06:09:58;65372.03;;;1.93;100.00
37132;BME280;23035;50.032;21.978;2022-12-20T06:15:35;65421.13;;;2.43;100.00
37132;BME280;23035;50.032;21.978;2022-12-20T06:20:49;65434.78;;;2.51;100.00
37132;BME280;23035;50.032;21.978;2022-12-20T06:25:59;65376.81;;;1.98;100.00
37132;BME280;23035;50.032;21.978;2022-12-20T06:31:09;65372.22;;;1.98;100.00
37132;BME280;23035;50.032;21.978;2022-12-20T06:36:21;65388.63;;;2.12;100.00
37132;BME280;23035;50.032;21.978;2022-12-20T06:41:27;65398.13;;;2.18;100.00
37132;BME280;23035;50.032;21.978;2022-12-20T06:46:32;65391.19;;;2.12;100.00
37132;BME280;23035;50.032;21.978;2022-12-20T06:51:37;65386.94;;;2.08;100.00
37132;BME280;23035;50.032;21.978;2022-12-20T06:56:44;65382.03;;;2.00;100.00
37132;BME280;23035;50.032;21.978;2022-12-20T07:01:48;65413.13;;;2.35;100.00
37132;BME280;23035;50.032;21.978;2022-12-20T07:06:53;65430.50;;;2.47;100.00
37132;BME280;23035;50.032;21.978;2022-12-20T07:12:00;65434.44;;;2.55;100.00
37132;BME280;23035;50.032;21.978;2022-12-20T07:17:04;65398.66;;;2.19;100.00
37132;BME280;23035;50.032;21.978;2022-12-20T07:22:10;65438.94;;;2.52;100.00
37132;BME280;23035;50.032;21.978;2022-12-20T07:27:16;65481.84;;;3.01;100.00
37132;BME280;23035;50.032;21.978;2022-12-20T07:32:20;65447.75;;;2.68;100.00
37132;BME280;23035;50.032;21.978;2022-12-20T07:37:27;65464.91;;;2.87;100.00
37132;BME280;23035;50.032;21.978;2022-12-20T07:42:33;65464.59;;;2.79;100.00
37132;BME280;23035;50.032;21.978;2022-12-20T07:47:43;65481.66;;;2.96;100.00
37132;BME280;23035;50.032;21.978;2022-12-20T07:52:48;65467.72;;;2.80;99.65
37132;BME280;23035;50.032;21.978;2022-12-20T07:57:56;65463.22;;;2.83;99.63
37132;BME280;23035;50.032;21.978;2022-12-20T08:03:09;65497.13;;;3.10;96.18
37132;BME280;23035;50.032;21.978;2022-12-20T08:08:16;65490.41;;;3.09;96.54
37132;BME280;23035;50.032;21.978;2022-12-20T08:13:22;65531.22;;;3.43;91.28
37132;BME280;23035;50.032;21.978;2022-12-20T08:18:26;65494.38;;;3.05;98.23
37132;BME280;23035;50.032;21.978;2022-12-20T08:23:31;65506.38;;;3.24;94.93
37132;BME280;23035;50.032;21.978;2022-12-20T08:28:37;65510.34;;;3.21;93.59
37132;BME280;23035;50.032;21.978;2022-12-20T08:33:41;65508.94;;;3.24;93.03
37132;BME280;23035;50.032;21.978;2022-12-20T08:38:45;65533.56;;;3.50;91.24
37132;BME280;23035;50.032;21.978;2022-12-20T08:43:51;65484.53;;;3.03;93.95
37132;BME280;23035;50.032;21.978;2022-12-20T08:48:55;65531.44;;;3.48;90.74
37132;BME280;23035;50.032;21.978;2022-12-20T08:54:00;65528.03;;;3.40;91.95
37132;BME280;23035;50.032;21.978;2022-12-20T08:59:06;65507.78;;;3.21;92.88
37132;BME280;23035;50.032;21.978;2022-12-20T09:04:10;65511.81;;;3.32;90.92
37132;BME280;23035;50.032;21.978;2022-12-20T09:09:16;65576.22;;;3.91;88.12
37132;BME280;23035;50.032;21.978;2022-12-20T09:14:22;65561.31;;;3.77;88.06
37132;BME280;23035;50.032;21.978;2022-12-20T09:19:26;65565.03;;;3.80;86.82
37132;BME280;23035;50.032;21.978;2022-12-20T09:24:31;65597.38;;;4.06;84.96
37132;BME280;23035;50.032;21.978;2022-12-20T09:29:37;65549.56;;;3.65;87.59
37132;BME280;23035;50.032;21.978;2022-12-20T09:34:41;65560.25;;;3.76;86.18
37132;BME280;23035;50.032;21.978;2022-12-20T09:39:48;65544.47;;;3.53;87.50
37132;BME280;23035;50.032;21.978;2022-12-20T09:45:00;65602.91;;;4.16;84.12
37132;BME280;23035;50.032;21.978;2022-12-20T09:50:06;65554.72;;;3.65;85.73
37132;BME280;23035;50.032;21.978;2022-12-20T09:55:23;65545.28;;;3.61;84.32
37132;BME280;23035;50.032;21.978;2022-12-20T10:00:35;65560.97;;;3.81;84.70
37132;BME280;23035;50.032;21.978;2022-12-20T10:05:48;65586.91;;;4.01;84.48
37132;BME280;23035;50.032;21.978;2022-12-20T10:10:56;65585.84;;;4.00;82.76
37132;BME280;23035;50.032;21.978;2022-12-20T10:16:16;65619.34;;;4.29;81.08
37132;BME280;23035;50.032;21.978;2022-12-20T10:21:27;65609.19;;;4.20;80.08
37132;BME280;23035;50.032;21.978;2022-12-20T10:26:33;65601.31;;;4.15;82.87
37132;BME280;23035;50.032;21.978;2022-12-20T10:31:40;65609.19;;;4.20;79.39
37132;BME280;23035;50.032;21.978;2022-12-20T10:36:48;65568.56;;;3.79;82.84
37132;BME280;23035;50.032;21.978;2022-12-20T10:41:54;65595.88;;;4.07;82.66
37132;BME280;23035;50.032;21.978;2022-12-20T10:47:01;65611.44;;;4.24;80.29
37132;BME280;23035;50.032;21.978;2022-12-20T10:52:11;65599.72;;;4.13;82.60
37132;BME280;23035;50.032;21.978;2022-12-20T10:57:19;65605.38;;;4.14;81.65
37132;BME280;23035;50.032;21.978;2022-12-20T11:02:28;65669.19;;;4.82;77.90
37132;BME280;23035;50.032;21.978;2022-12-20T11:07:53;65643.38;;;4.52;77.13
37132;BME280;23035;50.032;21.978;2022-12-20T11:13:22;65682.31;;;4.89;76.68
37132;BME280;23035;50.032;21.978;2022-12-20T11:18:37;65634.28;;;4.44;76.29
37132;BME280;23035;50.032;21.978;2022-12-20T11:23:47;65631.19;;;4.43;78.83
37132;BME280;23035;50.032;21.978;2022-12-20T11:29:15;65675.47;;;4.85;76.50
37132;BME280;23035;50.032;21.978;2022-12-20T11:34:36;65646.13;;;4.57;77.32
37132;BME280;23035;50.032;21.978;2022-12-20T11:39:53;65637.69;;;4.52;76.83
37132;BME280;23035;50.032;21.978;2022-12-20T11:45:11;65601.72;;;4.13;78.99
37132;BME280;23035;50.032;21.978;2022-12-20T11:50:39;65666.69;;;4.84;75.76
37132;BME280;23035;50.032;21.978;2022-12-20T11:55:51;65662.03;;;4.70;77.21
37132;BME280;23035;50.032;21.978;2022-12-20T12:00:59;65621.06;;;4.34;79.63
37132;BME280;23035;50.032;21.978;2022-12-20T12:06:11;65624.25;;;4.37;79.46
37132;BME280;23035;50.032;21.978;2022-12-20T12:11:23;65618.28;;;4.28;78.91
37132;BME280;23035;50.032;21.978;2022-12-20T12:16:53;65589.03;;;4.03;80.06
37132;BME280;23035;50.032;21.978;2022-12-20T12:22:05;65612.50;;;4.25;80.46
37132;BME280;23035;50.032;21.978;2022-12-20T12:27:22;65585.84;;;4.00;82.44
37132;BME280;23035;50.032;21.978;2022-12-20T12:32:31;65610.38;;;4.23;79.43
37132;BME280;23035;50.032;21.978;2022-12-20T12:37:56;65589.47;;;4.01;81.20
37132;BME280;23035;50.032;21.978;2022-12-20T12:43:36;65631.97;;;4.37;80.93
37132;BME280;23035;50.032;21.978;2022-12-20T12:48:50;65589.22;;;4.08;83.05
37132;BME280;23035;50.032;21.978;2022-12-20T12:54:13;65603.78;;;4.12;81.86
37132;BME280;23035;50.032;21.978;2022-12-20T12:59:41;65588.41;;;4.00;81.49
37132;BME280;23035;50.032;21.978;2022-12-20T13:04:55;65605.47;;;4.16;82.60
37132;BME280;23035;50.032;21.978;2022-12-20T13:16:26;65557.91;;;3.68;84.30
37132;BME280;23035;50.032;21.978;2022-12-20T13:21:55;65560.13;;;3.73;86.04
37132;BME280;23035;50.032;21.978;2022-12-20T13:27:01;65555.97;;;3.71;85.67
37132;BME280;23035;50.032;21.978;2022-12-20T13:37:51;65613.03;;;4.26;82.23
37132;BME280;23035;50.032;21.978;2022-12-20T13:43:03;65618.81;;;4.29;81.53
37132;BME280;23035;50.032;21.978;2022-12-20T13:48:13;65575.69;;;3.90;81.84
37132;BME280;23035;50.032;21.978;2022-12-20T13:53:21;65607.16;;;4.20;81.10
37132;BME280;23035;50.032;21.978;2022-12-20T13:58:30;65585.66;;;3.95;81.70
37132;BME280;23035;50.032;21.978;2022-12-20T14:03:40;65577.72;;;3.90;82.51
37132;BME280;23035;50.032;21.978;2022-12-20T14:08:49;65567.69;;;3.83;82.68
37132;BME280;23035;50.032;21.978;2022-12-20T14:13:56;65583.59;;;3.95;83.37
37132;BME280;23035;50.032;21.978;2022-12-20T14:19:02;65606.53;;;4.17;80.72
37132;BME280;23035;50.032;21.978;2022-12-20T14:24:07;65637.59;;;4.49;80.38
37132;BME280;23035;50.032;21.978;2022-12-20T14:29:22;65529.31;;;3.46;84.49
37132;BME280;23035;50.032;21.978;2022-12-20T14:34:31;65580.31;;;3.90;82.04
37132;BME280;23035;50.032;21.978;2022-12-20T14:39:54;65559.72;;;3.75;83.75
37132;BME280;23035;50.032;21.978;2022-12-20T14:45:14;65595.44;;;4.09;81.91
37132;BME280;23035;50.032;21.978;2022-12-20T14:50:25;65558.97;;;3.69;85.10
37132;BME280;23035;50.032;21.978;2022-12-20T14:55:33;65534.97;;;3.47;83.58
37132;BME280;23035;50.032;21.978;2022-12-20T15:00:54;65522.91;;;3.40;85.52
37132;BME280;23035;50.032;21.978;2022-12-20T15:05:59;65489.22;;;3.05;87.63
37132;BME280;23035;50.032;21.978;2022-12-20T15:11:13;65463.22;;;2.83;87.99
37132;BME280;23035;50.032;21.978;2022-12-20T15:16:27;65485.59;;;3.04;90.13
37132;BME280;23035;50.032;21.978;2022-12-20T15:21:35;65506.91;;;3.25;87.50
37132;BME280;23035;50.032;21.978;2022-12-20T15:26:42;65555.88;;;3.69;84.43
37132;BME280;23035;50.032;21.978;2022-12-20T15:31:50;65525.91;;;3.38;85.33
37132;BME280;23035;50.032;21.978;2022-12-20T15:36:55;65490.94;;;3.09;87.07
37132;BME280;23035;50.032;21.978;2022-12-20T15:42:03;65494.47;;;3.08;89.29
37132;BME280;23035;50.032;21.978;2022-12-20T15:47:11;65478.03;;;2.95;86.92
37132;BME280;23035;50.032;21.978;2022-12-20T15:52:18;65489.66;;;3.03;87.48
37132;BME280;23035;50.032;21.978;2022-12-20T15:57:23;65534.00;;;3.48;83.60
37132;BME280;23035;50.032;21.978;2022-12-20T16:02:31;65579.31;;;3.91;80.12
37132;BME280;23035;50.032;21.978;2022-12-20T16:07:36;65589.03;;;4.03;79.36
37132;BME280;23035;50.032;21.978;2022-12-20T16:12:41;65504.34;;;3.25;83.13
37132;BME280;23035;50.032;21.978;2022-12-20T16:17:47;65603.97;;;4.17;81.03
37132;BME280;23035;50.032;21.978;2022-12-20T16:22:52;65513.22;;;3.28;83.59
37132;BME280;23035;50.032;21.978;2022-12-20T16:27:57;65577.19;;;3.89;81.13
37132;BME280;23035;50.032;21.978;2022-12-20T16:33:03;65550.63;;;3.66;83.03
37132;BME280;23035;50.032;21.978;2022-12-20T16:38:09;65529.09;;;3.41;86.26
37132;BME280;23035;50.032;21.978;2022-12-20T16:43:14;65507.56;;;3.28;85.00
37132;BME280;23035;50.032;21.978;2022-12-20T16:48:21;65592.69;;;4.04;82.74
37132;BME280;23035;50.032;21.978;2022-12-20T16:53:26;65504.16;;;3.20;84.60
37132;BME280;23035;50.032;21.978;2022-12-20T16:58:50;65520.16;;;3.35;83.00
37132;BME280;23035;50.032;21.978;2022-12-20T17:04:17;65562.69;;;3.73;81.85
37132;BME280;23035;50.032;21.978;2022-12-20T17:09:23;65569.94;;;3.87;81.70
37132;BME280;23035;50.032;21.978;2022-12-20T17:14:28;65617.31;;;4.30;80.24
37132;BME280;23035;50.032;21.978;2022-12-20T17:19:38;65607.16;;;4.20;81.14
37132;BME280;23035;50.032;21.978;2022-12-20T17:25:24;65660.53;;;4.71;78.94
37132;BME280;23035;50.032;21.978;2022-12-20T17:30:44;65652.97;;;4.61;76.71
37132;BME280;23035;50.032;21.978;2022-12-20T17:35:50;65643.25;;;4.50;76.80
37132;BME280;23035;50.032;21.978;2022-12-20T17:41:04;65602.28;;;4.13;78.43
37132;BME280;23035;50.032;21.978;2022-12-20T17:47:03;65568.78;;;3.84;80.07
37132;BME280;23035;50.032;21.978;2022-12-20T17:52:17;65594.16;;;4.03;78.54
37132;BME280;23035;50.032;21.978;2022-12-20T17:58:05;65530.38;;;3.47;80.86
37132;BME280;23035;50.032;21.978;2022-12-20T18:03:15;65515.25;;;3.28;81.31
37132;BME280;23035;50.032;21.978;2022-12-20T18:08:46;65543.59;;;3.57;82.77
37132;BME280;23035;50.032;21.978;2022-12-20T18:13:53;65535.69;;;3.52;79.13
37132;BME280;23035;50.032;21.978;2022-12-20T18:19:02;65601.63;;;4.10;79.20
37132;BME280;23035;50.032;21.978;2022-12-20T18:24:12;65535.69;;;3.52;78.16
37132;BME280;23035;50.032;21.978;2022-12-20T18:29:19;65530.81;;;3.45;80.09
37132;BME280;23035;50.032;21.978;2022-12-20T18:34:24;65563.44;;;3.79;79.31
37132;BME280;23035;50.032;21.978;2022-12-20T18:39:30;65566.44;;;3.77;79.28
37132;BME280;23035;50.032;21.978;2022-12-20T18:44:35;65563.44;;;3.79;79.17
37132;BME280;23035;50.032;21.978;2022-12-20T18:49:39;65591.19;;;4.05;77.69
37132;BME280;23035;50.032;21.978;2022-12-20T18:54:45;65633.22;;;4.43;76.45
37132;BME280;23035;50.032;21.978;2022-12-20T18:59:49;65569.84;;;3.85;78.30
37132;BME280;23035;50.032;21.978;2022-12-20T19:04:54;65595.44;;;4.09;76.92
37132;BME280;23035;50.032;21.978;2022-12-20T19:10:00;65587.97;;;4.02;76.48
37132;BME280;23035;50.032;21.978;2022-12-20T19:15:04;65559.19;;;3.74;77.41
37132;BME280;23035;50.032;21.978;2022-12-20T19:20:17;65491.38;;;3.07;78.41
37132;BME280;23035;50.032;21.978;2022-12-20T19:25:59;65577.63;;;3.87;76.55
37132;BME280;23035;50.032;21.978;2022-12-20T19:31:23;65499.38;;;3.15;76.94
37132;BME280;23035;50.032;21.978;2022-12-20T19:36:36;65507.78;;;3.21;79.29
37132;BME280;23035;50.032;21.978;2022-12-20T19:41:46;65542.97;;;3.54;78.53
37132;BME280;23035;50.032;21.978;2022-12-20T19:48:36;65490.41;;;3.09;78.42
37132;BME280;23035;50.032;21.978;2022-12-20T19:55:50;65530.81;;;3.45;76.63
37132;BME280;23035;50.032;21.978;2022-12-20T20:00:57;65478.47;;;2.93;77.83
37132;BME280;23035;50.032;21.978;2022-12-20T20:06:03;65534.09;;;3.51;75.61
37132;BME280;23035;50.032;21.978;2022-12-20T20:11:23;65577.09;;;3.87;73.22
37132;BME280;23035;50.032;21.978;2022-12-20T20:17:14;65560.13;;;3.73;73.17
37132;BME280;23035;50.032;21.978;2022-12-20T20:22:27;65558.34;;;3.66;72.28
37132;BME280;23035;50.032;21.978;2022-12-20T20:27:35;65602.69;;;4.11;72.07
37132;BME280;23035;50.032;21.978;2022-12-20T20:38:50;65557.38;;;3.68;73.07
37132;BME280;23035;50.032;21.978;2022-12-20T20:44:04;65558.97;;;3.69;70.10
37132;BME280;23035;50.032;21.978;2022-12-20T20:49:12;65554.28;;;3.67;72.10
37132;BME280;23035;50.032;21.978;2022-12-20T20:54:20;65585.22;;;3.97;70.42
37132;BME280;23035;50.032;21.978;2022-12-20T20:59:27;65585.66;;;3.95;71.23
37132;BME280;23035;50.032;21.978;2022-12-20T21:04:35;65536.56;;;3.48;71.67
37132;BME280;23035;50.032;21.978;2022-12-20T21:09:43;65581.13;;;3.98;67.42
37132;BME280;23035;50.032;21.978;2022-12-20T21:14:48;65516.31;;;3.29;70.60
37132;BME280;23035;50.032;21.978;2022-12-20T21:20:16;65505.31;;;3.23;69.88
37132;BME280;23035;50.032;21.978;2022-12-20T21:25:33;65531.75;;;3.43;68.94
37132;BME280;23035;50.032;21.978;2022-12-20T21:30:37;65603.44;;;4.17;68.20
37132;BME280;23035;50.032;21.978;2022-12-20T21:35:42;65546.78;;;3.60;67.77
37132;BME280;23035;50.032;21.978;2022-12-20T21:41:00;65540.50;;;3.57;68.32
37132;BME280;23035;50.032;21.978;2022-12-20T21:46:06;65568.97;;;3.89;68.10
37132;BME280;23035;50.032;21.978;2022-12-20T21:51:15;65606.72;;;4.22;66.05
37132;BME280;23035;50.032;21.978;2022-12-20T21:56:24;65569.63;;;3.80;68.13
37132;BME280;23035;50.032;21.978;2022-12-20T22:01:32;65606.72;;;4.22;65.37
37132;BME280;23035;50.032;21.978;2022-12-20T22:06:37;65557.03;;;3.72;65.19
37132;BME280;23035;50.032;21.978;2022-12-20T22:11:45;65559.19;;;3.74;65.65
37132;BME280;23035;50.032;21.978;2022-12-20T22:16:50;65549.56;;;3.65;67.00
37132;BME280;23035;50.032;21.978;2022-12-20T22:21:56;65602.28;;;4.13;66.39
37132;BME280;23035;50.032;21.978;2022-12-20T22:27:04;65560.25;;;3.76;65.77
37132;BME280;23035;50.032;21.978;2022-12-20T22:32:15;65539.88;;;3.54;65.12
37132;BME280;23035;50.032;21.978;2022-12-20T22:37:20;65515.78;;;3.28;66.78
37132;BME280;23035;50.032;21.978;2022-12-20T22:42:26;65549.03;;;3.65;64.04
37132;BME280;23035;50.032;21.978;2022-12-20T22:47:30;65540.94;;;3.55;63.74
37132;BME280;23035;50.032;21.978;2022-12-20T22:52:35;65592.78;;;4.07;63.92
37132;BME280;23035;50.032;21.978;2022-12-20T22:57:41;65580.31;;;3.90;62.29
37132;BME280;23035;50.032;21.978;2022-12-20T23:02:46;65563.78;;;3.74;63.56
37132;BME280;23035;50.032;21.978;2022-12-20T23:07:50;65547.97;;;3.64;63.37
37132;BME280;23035;50.032;21.978;2022-12-20T23:12:56;65551.50;;;3.62;62.65
37132;BME280;23035;50.032;21.978;2022-12-20T23:18:26;65552.75;;;3.68;62.12
37132;BME280;23035;50.032;21.978;2022-12-20T23:23:31;65557.03;;;3.72;63.68
37132;BME280;23035;50.032;21.978;2022-12-20T23:28:37;65609.19;;;4.20;61.03
37132;BME280;23035;50.032;21.978;2022-12-20T23:33:41;65575.25;;;3.92;62.12
37132;BME280;23035;50.032;21.978;2022-12-20T23:38:46;65566.00;;;3.79;62.03
37132;BME280;23035;50.032;21.978;2022-12-20T23:43:52;65569.63;;;3.80;61.57
37132;BME280;23035;50.032;21.978;2022-12-20T23:48:57;65546.25;;;3.60;63.04
37132;BME280;23035;50.032;21.978;2022-12-20T23:54:02;65460.53;;;2.80;65.71
37132;BME280;23035;50.032;21.978;2022-12-20T23:59:09;65488.16;;;3.04;66.71
